Chambly, Canada
Current Conditions -  °F | °C
As of 5:00 AM on Saturday 01 Nov 2014 (Local Time) from CYHU Reporting Station
Clear Clear  
Wind Chill: 27°   Ceiling: Unl
Heat Index: 36°   Visibility: 9mi
Dew Point: 30°   Wind: 13mph
Humidity: 81%   Direction: 10°N
Pressure: 30.07"   Gusts: NA
Location:  45.45°N, 73.3°W
Report Text: CYHU 010900Z AUTO 01011KT 9SM CLR 02/M01 A3007 RMK SLP184
Loading
Personal Weather Stations






























Interactive Weather Map
Tropical Storm Tracking
New forecast layout! Learn more

10-Day Weather Forecast

Advertisements
Track Severe Weather on mobile